• Join FlightAware (Why Join?)
  • Login
  • US Flag 
02:16AM EDT


 

Airport Tracker/Info


-or-


 

Live Flight TrackerFlight Track Log ✈ UAL1116 ✈ 04-Jan-2014 ✈ MMMX / MEX - KSFO

Flight Track Log - Related Links

Times and Time Zones

All times are in EST time to prevent confusion due to time zone crossing. See the UAL1116 flight status page for this flight to view local times or setup timezone preferences in your user account.

Time Position Orientation Groundspeed Altitude Reporting Facility
EST Latitude Longitude Course Direction KTS MPH feet Rate Location/Type
07:24PM 34.0947 -116.6275 322° Northwest  Level Estimated
07:24PM 32.0164 -116.0600 322° Northwest 404 465 38,000  Level Los Angeles Center
07:25PM 34.1698 -116.7408 322° Northwest  Level Estimated
07:25PM 32.0817 -116.1689 305° West 406 467 38,000  Level Los Angeles Center
07:26PM 34.2449 -116.8542 322° Northwest  Level Estimated
07:26PM 32.1581 -116.2997 305° West 404 465 38,000  Level Los Angeles Center
07:27PM 34.3199 -116.9678 322° Northwest  Level Estimated
07:28PM 34.3947 -117.0816 322° Northwest  Level Estimated
07:28PM 32.2097 -116.3875 305° West 405 466 38,000  Level Los Angeles Center
07:29PM 34.4695 -117.1957 322° Northwest  Level Estimated
07:29PM 32.2858 -116.5178 305° West 402 463 37,900  Level Los Angeles Center
07:30PM 34.5442 -117.3099 322° Northwest  Level Estimated
07:30PM 32.3492 -116.6258 305° West 399 459 38,000  Level Los Angeles Center
07:31PM 32.4139 -116.7358 305° West 404 465 38,000 -60 Level Los Angeles Center
07:32PM 32.4775 -116.8456 305° West 404 465 37,900  Descending Los Angeles Center
07:33PM 32.5431 -116.9583 305° West 409 471 38,000  Climbing Los Angeles Center
07:34PM 32.6331 -117.0806 311° West 408 470 38,000 -60 Level Los Angeles Center
07:35PM 32.7083 -117.1847 311° West 412 474 37,900  Descending Los Angeles Center
07:36PM 32.7814 -117.2886 310° West 410 472 38,000  Climbing Los Angeles Center
07:37PM 32.8558 -117.3908 311° West 412 474 38,000  Level Los Angeles Center
07:38PM 32.9292 -117.4947 310° West 411 473 38,000  Level Los Angeles Center
07:39PM 33.0042 -117.5975 311° West 411 473 38,000  Level Los Angeles Center
07:40PM 33.1083 -117.7439 310° West 414 476 38,000  Level Los Angeles Center
07:41PM 33.1831 -117.8483 311° West 413 475 38,000  Level Los Angeles Center
07:42PM 33.2572 -117.9533 310° West 413 475 38,000  Level Los Angeles Center
07:43PM 33.3317 -118.0594 310° West 416 479 38,000  Level Los Angeles Center
07:44PM 33.4061 -118.1661 310° West 415 478 38,000  Level Los Angeles Center
07:45PM 33.4811 -118.2731 310° West 417 480 38,000  Level Los Angeles Center
07:46PM 33.5553 -118.3814 309° West 416 479 38,000  Level Los Angeles Center
07:48PM 33.6325 -118.4914 310° West 421 484 38,000  Level Los Angeles Center
07:49PM 33.7397 -118.6456 310° West 423 487 38,000  Level Los Angeles Center
07:50PM 33.8156 -118.7544 310° West 424 488 38,000  Level Los Angeles Center
07:51PM 33.8906 -118.8633 310° West 422 486 38,000  Level Los Angeles Center
07:52PM 33.9650 -118.9717 310° West 420 483 38,000  Level Los Angeles Center
07:53PM 34.0394 -119.0811 309° West 421 484 38,000  Level Los Angeles Center
07:54PM 34.1133 -119.1900 309° West 420 483 38,000  Level Los Angeles Center
07:55PM 34.2025 -119.3217 309° West 422 486 38,000  Level Los Angeles Center
07:56PM 34.2789 -119.4322 310° West 426 490 38,000  Level Los Angeles Center
07:57PM 34.3522 -119.5431 309° West 424 488 38,000  Level Los Angeles Center
07:58PM 34.4272 -119.6542 309° West 426 490 38,000  Level Los Angeles Center
07:59PM 34.5031 -119.7647 310° West 427 491 38,000  Level Los Angeles Center
08:00PM 34.5892 -119.8625 317° Northwest 424 488 38,000  Level Los Angeles Center
08:01PM 34.6958 -119.9725 320° Northwest 422 486 38,000  Level Los Angeles Center
08:02PM 34.7822 -120.0686 318° Northwest 421 484 38,000  Level Los Angeles Center
08:03PM 34.8717 -120.1658 318° Northwest 426 490 38,000 -60 Level Los Angeles Center
08:04PM 34.9556 -120.2592 318° Northwest 424 488 37,900  Descending Los Angeles Center
08:05PM 35.0411 -120.3528 318° Northwest 419 482 38,000  Climbing Los Angeles Center
08:06PM 35.1267 -120.4475 318° Northwest 420 483 38,000  Level Los Angeles Center
08:07PM 35.2283 -120.5622 317° Northwest 420 483 38,000 -60 Level Los Angeles Center
08:08PM 35.3147 -120.6597 317° Northwest 425 489 37,900 -60 Descending Los Angeles Center
08:09PM 35.4011 -120.7564 318° Northwest 424 488 37,900  Level Los Angeles Center
08:10PM 35.4881 -120.8531 318° Northwest 423 487 38,000  Climbing Los Angeles Center
08:12PM 35.5819 -120.9392 323° Northwest 423 487 38,000  Level Los Angeles Center
08:13PM 35.7086 -121.0478 325° Northwest 419 482 38,000 -420 Level Los Angeles Center
08:14PM 35.8211 -121.1481 324° Northwest 414 476 37,200 -780 Descending Oakland Center
08:15PM 35.9181 -121.2306 325° Northwest 421 484 36,300 -1,080 Descending Oakland Center
08:16PM 36.0153 -121.3175 324° Northwest 429 494 35,100 -1,980 Descending Oakland Center
08:17PM 36.1128 -121.4008 325° Northwest 426 490 32,300 -2,580 Descending Oakland Center
08:18PM 36.2103 -121.4875 324° Northwest 429 494 29,900 -2,340 Descending Oakland Center
08:19PM 36.3053 -121.5714 325° Northwest 421 484 27,600 -2,220 Descending Oakland Center
08:20PM 36.3983 -121.6531 325° Northwest 409 471 25,500 -2,280 Descending Oakland Center
08:21PM 36.4833 -121.7333 323° Northwest 398 458 23,500 -2,220 Descending Northern Cal TRACON
08:22PM 36.5833 -121.8167 326° Northwest 381 438 21,400 -2,100 Descending Northern Cal TRACON
08:23PM 36.6667 -121.8667 334° Northwest 375 432 19,100 -2,100 Descending Northern Cal TRACON
08:24PM 36.7667 -121.9167 338° Northwest 360 414 17,200 -1,920 Descending Northern Cal TRACON
08:25PM 36.8500 -121.9500 342° North 348 400 15,300 -1,920 Descending Northern Cal TRACON
08:26PM 36.9500 -122.0000 338° Northwest 338 389 13,400 -1,860 Descending Northern Cal TRACON
08:27PM 37.0333 -122.0333 342° North 326 375 11,600 -1,500 Descending Northern Cal TRACON
08:28PM 37.1167 -122.0667 342° North 304 350 10,400 -840 Descending Northern Cal TRACON
08:29PM 37.1833 -122.0833 349° North 274 315 10,000 -960 Descending Northern Cal TRACON
08:30PM 37.2667 -122.1000 351° North 263 303 8,500 -1,560 Descending Northern Cal TRACON
08:31PM 37.3333 -122.1167 349° North 262 302 6,900 -1,440 Descending Northern Cal TRACON
08:32PM 37.4000 -122.1333 349° North 260 299 5,700 -780 Descending Northern Cal TRACON
08:33PM 37.4667 -122.1500 349° North 215 247 5,400 -780 Descending Northern Cal TRACON
08:34PM 37.5167 -122.1833 332° Northwest 191 220 4,200 -1,380 Descending Northern Cal TRACON
08:35PM 37.5500 -122.2167 322° Northwest 185 213 2,700 -1,380 Descending Northern Cal TRACON
08:36PM 37.5833 -122.2833 302° West 171 197 1,400 -1,080 Descending Northern Cal TRACON
08:37PM 37.6000 -122.3167 302° West 166 191 600 -900 Descending Northern Cal TRACON